createdAt,value
2023-01-30T00:02:20.186Z,17.90
2023-01-30T00:09:07.299Z,21.70
2023-01-30T00:12:38.072Z,19.60
2023-01-30T00:16:10.786Z,18.30
2023-01-30T00:19:41.338Z,13.40
2023-01-30T00:23:17.100Z,17.40
2023-01-30T00:27:11.058Z,14.10
2023-01-30T00:30:12.847Z,16.20
2023-01-30T00:33:52.168Z,18.20
2023-01-30T00:37:35.764Z,18.30
2023-01-30T00:41:07.165Z,17.70
2023-01-30T00:44:41.200Z,18.40
2023-01-30T00:48:25.917Z,16.90
2023-01-30T00:52:23.140Z,21.00
2023-01-30T00:59:18.368Z,19.50
2023-01-30T01:02:26.793Z,29.60
2023-01-30T01:05:55.114Z,18.00
2023-01-30T01:09:29.892Z,17.60
2023-01-30T01:12:58.984Z,15.30
2023-01-30T01:16:44.950Z,16.20
2023-01-30T01:20:23.840Z,13.50
2023-01-30T01:24:54.454Z,18.40
2023-01-30T01:29:24.222Z,16.20
2023-01-30T01:32:36.980Z,22.70
2023-01-30T01:36:29.328Z,22.10
2023-01-30T01:39:43.035Z,20.80
2023-01-30T01:43:14.244Z,20.20
2023-01-30T01:46:52.025Z,20.60
2023-01-30T01:50:27.316Z,24.60
2023-01-30T01:54:45.702Z,19.60
2023-01-30T01:59:26.841Z,21.20
2023-01-30T02:03:09.088Z,18.50
2023-01-30T02:06:44.295Z,17.00
2023-01-30T02:11:02.111Z,17.70
2023-01-30T02:18:31.853Z,16.50
2023-01-30T02:25:54.473Z,13.50
2023-01-30T02:29:00.967Z,14.30
2023-01-30T02:32:46.910Z,17.10
2023-01-30T02:36:23.036Z,19.00
2023-01-30T02:40:31.890Z,12.60
2023-01-30T02:48:38.693Z,14.70
2023-01-30T02:55:57.792Z,17.50
2023-01-30T02:59:10.889Z,16.00
2023-01-30T03:02:51.848Z,12.70
2023-01-30T03:06:32.029Z,12.70
2023-01-30T03:10:02.206Z,13.70
2023-01-30T03:13:48.142Z,16.10
2023-01-30T03:17:26.031Z,10.50
2023-01-30T03:21:01.840Z,14.20
2023-01-30T03:25:23.685Z,14.90
2023-01-30T03:28:39.473Z,12.60
2023-01-30T03:35:33.649Z,14.20
2023-01-30T03:42:25.995Z,13.40
2023-01-30T03:45:34.853Z,12.80
2023-01-30T03:49:04.957Z,10.90
2023-01-30T03:52:40.905Z,14.40
2023-01-30T03:56:14.509Z,18.50
2023-01-30T03:59:45.883Z,16.80
2023-01-30T04:03:24.119Z,14.20
2023-01-30T04:07:03.102Z,14.50
2023-01-30T04:10:35.934Z,11.70
2023-01-30T04:14:09.882Z,14.10
2023-01-30T04:17:46.884Z,14.00
2023-01-30T04:22:09.938Z,16.20
2023-01-30T04:26:00.019Z,12.10
2023-01-30T04:29:35.607Z,14.30
2023-01-30T04:33:12.055Z,13.00
2023-01-30T04:36:46.868Z,16.70
2023-01-30T04:40:30.837Z,19.50
2023-01-30T04:44:27.069Z,11.00
2023-01-30T04:48:56.176Z,14.40
2023-01-30T05:00:07.786Z,11.60
2023-01-30T05:03:22.996Z,14.60
2023-01-30T05:06:59.980Z,13.90
2023-01-30T05:10:35.637Z,13.40
2023-01-30T05:14:14.028Z,12.40
2023-01-30T05:17:47.799Z,13.20
2023-01-30T05:22:01.619Z,13.20
2023-01-30T05:25:31.624Z,15.30
2023-01-30T05:29:07.734Z,15.20
2023-01-30T05:32:44.791Z,15.30
2023-01-30T05:37:03.034Z,13.70
2023-01-30T05:43:55.859Z,13.20
2023-01-30T05:47:38.712Z,11.20
2023-01-30T05:51:42.947Z,15.90
2023-01-30T05:56:15.643Z,10.40
2023-01-30T05:59:54.689Z,11.20
2023-01-30T06:02:52.133Z,12.70
2023-01-30T06:05:34.269Z,11.20
2023-01-30T06:08:16.883Z,12.30
2023-01-30T06:10:45.099Z,16.40
2023-01-30T06:13:27.200Z,13.10
2023-01-30T06:15:55.515Z,14.10
2023-01-30T06:18:38.445Z,15.00
2023-01-30T06:21:08.058Z,12.90
2023-01-30T06:23:37.012Z,11.90
2023-01-30T06:26:19.054Z,15.10
2023-01-30T06:29:01.209Z,11.10
2023-01-30T06:34:25.408Z,12.70
2023-01-30T06:37:07.497Z,11.80
2023-01-30T06:42:50.780Z,13.50
2023-01-30T06:48:29.146Z,12.30
2023-01-30T06:51:11.126Z,9.10
2023-01-30T06:53:39.294Z,10.00
2023-01-30T06:56:21.777Z,9.10
2023-01-30T06:59:03.932Z,14.00
2023-01-30T07:01:46.050Z,13.60
2023-01-30T07:04:28.297Z,13.40
2023-01-30T07:07:10.280Z,14.00
2023-01-30T07:10:06.936Z,13.10
2023-01-30T07:12:50.220Z,12.80
2023-01-30T07:15:33.310Z,13.00
2023-01-30T07:18:15.548Z,12.80
2023-01-30T07:20:57.492Z,11.00
2023-01-30T07:23:39.522Z,13.90
2023-01-30T07:26:07.680Z,14.30
2023-01-30T07:28:35.877Z,13.10
2023-01-30T07:31:17.945Z,14.90
2023-01-30T07:36:56.017Z,18.00
2023-01-30T07:39:24.342Z,20.60
2023-01-30T07:41:52.651Z,16.40
2023-01-30T07:44:21.268Z,16.30
2023-01-30T07:46:49.593Z,17.30
2023-01-30T07:49:17.674Z,16.80
2023-01-30T07:51:46.088Z,13.20
2023-01-30T07:54:14.581Z,11.30
2023-01-30T07:56:42.853Z,15.20
2023-01-30T07:59:12.447Z,14.40
2023-01-30T08:01:41.149Z,10.10
2023-01-30T08:04:09.541Z,15.90
2023-01-30T08:06:39.799Z,13.10
2023-01-30T08:09:08.389Z,16.90
2023-01-30T08:11:36.908Z,14.50
2023-01-30T08:14:05.372Z,16.20
2023-01-30T08:16:34.271Z,13.70
2023-01-30T08:19:16.407Z,13.30
2023-01-30T08:22:00.053Z,22.20
2023-01-30T08:24:42.341Z,19.30
2023-01-30T08:27:11.164Z,17.70
2023-01-30T08:29:39.670Z,23.70
2023-01-30T08:32:08.210Z,20.50
2023-01-30T08:34:36.712Z,19.60
2023-01-30T08:37:05.171Z,18.50
2023-01-30T08:39:34.966Z,20.40
2023-01-30T08:42:18.539Z,20.80
2023-01-30T08:44:46.965Z,20.30
2023-01-30T08:47:15.169Z,21.10
2023-01-30T08:49:43.774Z,22.40
2023-01-30T08:53:14.297Z,19.10
2023-01-30T08:55:45.797Z,20.80
2023-01-30T08:58:27.799Z,16.10
2023-01-30T09:03:52.420Z,19.20
2023-01-30T09:12:12.705Z,18.70
2023-01-30T09:17:39.204Z,15.00
2023-01-30T09:20:10.856Z,12.70
2023-01-30T09:22:39.871Z,12.30
2023-01-30T09:25:22.013Z,16.40
2023-01-30T09:28:04.601Z,14.90
2023-01-30T09:30:32.886Z,13.60
2023-01-30T09:33:03.841Z,15.70
2023-01-30T09:38:28.131Z,15.40
2023-01-30T09:41:25.379Z,14.40
2023-01-30T09:47:40.007Z,14.40
2023-01-30T09:51:03.116Z,15.40
2023-01-30T10:03:13.167Z,14.80
2023-01-30T10:06:16.502Z,18.00
2023-01-30T10:09:19.228Z,13.90
2023-01-30T10:12:23.667Z,18.30
2023-01-30T10:15:47.391Z,16.20
2023-01-30T10:18:52.893Z,15.80
2023-01-30T10:22:02.544Z,18.10
2023-01-30T10:28:36.887Z,12.30
2023-01-30T10:31:22.972Z,12.10
2023-01-30T10:34:24.817Z,7.40
2023-01-30T10:37:15.133Z,7.50
2023-01-30T10:40:14.709Z,7.30
2023-01-30T10:43:27.731Z,9.10
2023-01-30T10:46:54.539Z,6.10
2023-01-30T10:49:42.167Z,6.40
2023-01-30T10:53:03.830Z,5.50
2023-01-30T10:55:55.729Z,5.30
2023-01-30T10:58:39.878Z,5.70
2023-01-30T11:01:44.782Z,6.40
2023-01-30T11:05:01.320Z,5.60
2023-01-30T11:07:47.151Z,5.40
2023-01-30T11:10:29.316Z,5.00
2023-01-30T11:13:18.093Z,6.60
2023-01-30T11:15:51.574Z,6.30
2023-01-30T11:19:14.017Z,4.70
2023-01-30T11:21:43.102Z,5.20
2023-01-30T11:24:42.119Z,7.30
2023-01-30T11:27:28.244Z,5.80
2023-01-30T11:30:19.727Z,7.20
2023-01-30T11:32:50.975Z,5.70
2023-01-30T11:35:30.232Z,5.60
2023-01-30T11:38:21.288Z,4.30
2023-01-30T11:40:49.961Z,6.80
2023-01-30T11:43:18.412Z,6.30
2023-01-30T11:45:50.183Z,5.80
2023-01-30T11:48:33.178Z,6.10
2023-01-30T11:51:12.680Z,7.60
2023-01-30T11:53:48.372Z,9.00
2023-01-30T11:56:46.312Z,4.90
2023-01-30T12:33:39.302Z,7.00
2023-01-30T12:37:26.628Z,6.60
2023-01-30T12:40:25.184Z,5.90
2023-01-30T12:43:05.265Z,4.30
2023-01-30T12:45:56.061Z,8.00
2023-01-30T12:49:14.245Z,6.70
2023-01-30T12:51:59.174Z,6.60
2023-01-30T12:54:42.226Z,6.80
2023-01-30T12:57:27.014Z,6.70
2023-01-30T13:00:02.141Z,7.00
2023-01-30T13:02:48.955Z,7.20
2023-01-30T13:05:45.093Z,7.40
2023-01-30T13:09:19.993Z,6.90
2023-01-30T13:12:16.264Z,5.50
2023-01-30T13:15:31.942Z,7.00
2023-01-30T13:18:21.104Z,8.30
2023-01-30T13:21:31.265Z,6.00
2023-01-30T13:24:11.276Z,3.50
2023-01-30T13:26:44.323Z,4.80
2023-01-30T13:29:37.025Z,8.10
2023-01-30T13:32:16.549Z,6.80
2023-01-30T13:34:47.987Z,5.40
2023-01-30T13:37:20.892Z,4.30
2023-01-30T13:40:17.917Z,5.90
2023-01-30T13:43:02.350Z,6.40
2023-01-30T13:45:35.828Z,5.80
2023-01-30T13:48:32.046Z,7.10
2023-01-30T13:51:17.333Z,5.20
2023-01-30T13:54:20.448Z,6.40
2023-01-30T13:57:05.362Z,5.90
2023-01-30T13:59:50.249Z,5.60
2023-01-30T14:02:24.218Z,5.30
2023-01-30T14:04:58.017Z,6.20
2023-01-30T14:07:43.081Z,7.10
2023-01-30T14:10:15.217Z,8.20
2023-01-30T14:12:54.650Z,7.90
2023-01-30T14:15:29.507Z,6.00
2023-01-30T14:18:24.257Z,6.50
2023-01-30T14:21:11.941Z,5.90
2023-01-30T14:24:00.938Z,7.20
2023-01-30T14:26:48.877Z,7.80
2023-01-30T14:35:43.443Z,8.10
2023-01-30T14:38:13.030Z,6.70
2023-01-30T14:41:03.390Z,6.40
2023-01-30T14:43:46.467Z,5.10
2023-01-30T14:46:17.633Z,4.10
2023-01-30T14:48:51.906Z,6.50
2023-01-30T14:54:48.459Z,6.60
2023-01-30T14:57:23.307Z,6.80
2023-01-30T15:00:12.109Z,6.70
2023-01-30T15:02:51.600Z,8.10
2023-01-30T15:05:31.020Z,3.80
2023-01-30T15:08:23.395Z,7.90
2023-01-30T15:11:23.514Z,6.40
2023-01-30T15:14:30.055Z,5.90
2023-01-30T15:17:16.249Z,5.10
2023-01-30T15:20:07.299Z,7.50
2023-01-30T15:22:53.929Z,8.00
2023-01-30T15:26:13.026Z,7.50
2023-01-30T15:28:58.004Z,7.50
2023-01-30T15:31:26.988Z,5.80
2023-01-30T15:33:59.093Z,8.30
2023-01-30T15:36:35.810Z,8.60
2023-01-30T15:39:19.393Z,7.10
2023-01-30T15:42:08.955Z,11.50
2023-01-30T15:48:34.452Z,8.80
2023-01-30T15:51:22.808Z,8.40
2023-01-30T15:53:50.960Z,5.30
2023-01-30T15:56:30.693Z,7.60
2023-01-30T15:59:29.342Z,6.90
2023-01-30T16:02:22.269Z,10.80
2023-01-30T16:08:30.072Z,7.50
2023-01-30T16:11:00.807Z,8.90
2023-01-30T16:16:25.469Z,7.90
2023-01-30T16:19:09.139Z,8.10
2023-01-30T16:21:51.242Z,5.90
2023-01-30T16:24:38.162Z,11.10
2023-01-30T16:27:31.334Z,5.90
2023-01-30T16:30:13.722Z,8.70
2023-01-30T16:32:57.339Z,11.20
2023-01-30T16:35:29.264Z,10.70
2023-01-30T16:38:44.523Z,6.60
2023-01-30T16:41:43.527Z,8.90
2023-01-30T16:44:32.760Z,6.20
2023-01-30T16:47:31.623Z,9.50
2023-01-30T16:50:23.921Z,5.30
2023-01-30T16:52:56.138Z,6.80
2023-01-30T16:55:38.205Z,8.60
2023-01-30T16:58:06.961Z,11.50
2023-01-30T17:00:52.314Z,7.10
2023-01-30T17:03:42.947Z,9.90
2023-01-30T17:06:43.026Z,8.70
2023-01-30T17:09:48.734Z,9.20
2023-01-30T17:12:25.825Z,7.00
2023-01-30T17:15:12.219Z,7.00
2023-01-30T17:17:41.728Z,7.50
2023-01-30T17:20:13.275Z,8.60
2023-01-30T17:23:03.727Z,8.50
2023-01-30T17:25:39.666Z,12.40
2023-01-30T17:28:09.118Z,8.60
2023-01-30T17:30:51.630Z,8.20
2023-01-30T17:33:20.366Z,7.60
2023-01-30T17:35:49.029Z,5.40
2023-01-30T17:38:17.560Z,9.90
2023-01-30T17:40:46.324Z,8.10
2023-01-30T17:46:13.691Z,6.70
2023-01-30T17:48:43.331Z,9.50
2023-01-30T17:51:25.405Z,5.20
2023-01-30T17:53:54.029Z,5.40
2023-01-30T17:56:38.144Z,5.80
2023-01-30T17:59:16.468Z,6.10
2023-01-30T18:01:49.092Z,4.40
2023-01-30T18:04:31.267Z,6.00
2023-01-30T18:07:04.650Z,7.20
2023-01-30T18:09:33.145Z,5.20
2023-01-30T18:12:02.106Z,5.10
2023-01-30T18:14:44.207Z,4.80
2023-01-30T18:17:13.174Z,5.20
2023-01-30T18:19:41.635Z,4.00
2023-01-30T18:22:09.995Z,4.90
2023-01-30T18:24:38.568Z,5.50
2023-01-30T18:27:06.868Z,4.60
2023-01-30T18:29:35.231Z,5.60
2023-01-30T18:32:06.047Z,4.80
2023-01-30T18:34:34.589Z,6.80
2023-01-30T18:37:03.308Z,5.30
2023-01-30T18:39:32.272Z,4.30
2023-01-30T18:42:02.375Z,4.60
2023-01-30T18:44:31.342Z,7.20
2023-01-30T18:47:14.100Z,6.00
2023-01-30T18:49:56.811Z,7.20
2023-01-30T18:52:25.654Z,5.80
2023-01-30T18:55:08.584Z,5.50
2023-01-30T18:57:37.300Z,7.00
2023-01-30T19:00:06.986Z,6.70
2023-01-30T19:02:35.636Z,5.90
2023-01-30T19:08:00.740Z,7.70
2023-01-30T19:10:31.002Z,7.20
2023-01-30T19:13:27.082Z,9.70
2023-01-30T19:16:00.669Z,7.20
2023-01-30T19:18:44.344Z,6.50
2023-01-30T19:21:13.018Z,8.80
2023-01-30T19:23:41.828Z,8.90
2023-01-30T19:26:10.998Z,9.90
2023-01-30T19:28:42.001Z,6.80
2023-01-30T19:31:16.621Z,6.30
2023-01-30T19:33:48.622Z,7.70
2023-01-30T19:36:20.832Z,14.70
2023-01-30T19:38:51.284Z,8.70
2023-01-30T19:41:28.124Z,6.40
2023-01-30T19:44:12.368Z,7.80
2023-01-30T19:46:41.030Z,5.70
2023-01-30T19:49:11.989Z,10.20
2023-01-30T19:51:41.870Z,6.90
2023-01-30T19:54:12.496Z,8.80
2023-01-30T19:56:42.709Z,10.00
2023-01-30T19:59:13.234Z,8.00
2023-01-30T20:01:42.159Z,6.50
2023-01-30T20:04:11.036Z,6.30
2023-01-30T20:06:46.355Z,6.80
2023-01-30T20:09:28.621Z,9.30
2023-01-30T20:11:57.147Z,8.30
2023-01-30T20:14:25.761Z,6.10
2023-01-30T20:16:54.320Z,7.40
2023-01-30T20:19:22.980Z,8.40
2023-01-30T20:21:51.552Z,5.80
2023-01-30T20:24:20.183Z,7.00
2023-01-30T20:26:48.844Z,10.60
2023-01-30T20:29:18.056Z,6.70
2023-01-30T20:31:47.068Z,5.40
2023-01-30T20:34:16.019Z,6.10
2023-01-30T20:36:44.955Z,7.50
2023-01-30T20:39:20.688Z,7.70
2023-01-30T20:41:55.882Z,6.30
2023-01-30T20:44:26.012Z,5.40
2023-01-30T20:46:56.860Z,6.90
2023-01-30T20:49:25.727Z,6.20
2023-01-30T20:51:54.655Z,9.10
2023-01-30T20:54:24.141Z,6.10
2023-01-30T20:56:55.062Z,7.20
2023-01-30T20:59:27.504Z,5.90
2023-01-30T21:02:10.362Z,8.10
2023-01-30T21:04:39.473Z,4.30
2023-01-30T21:07:21.550Z,6.60
2023-01-30T21:10:03.725Z,5.10
2023-01-30T21:12:45.842Z,5.80
2023-01-30T21:15:27.955Z,6.00
2023-01-30T21:17:56.204Z,5.40
2023-01-30T21:20:24.442Z,4.50
2023-01-30T21:22:52.541Z,6.60
2023-01-30T21:25:21.264Z,6.60
2023-01-30T21:27:49.931Z,8.70
2023-01-30T21:30:32.106Z,11.80
2023-01-30T21:33:14.344Z,6.70
2023-01-30T21:35:42.542Z,10.90
2023-01-30T21:38:25.386Z,8.20
2023-01-30T21:41:06.848Z,8.80
2023-01-30T21:46:48.426Z,8.30
2023-01-30T21:49:18.743Z,8.90
2023-01-30T21:52:01.207Z,13.20
2023-01-30T21:54:29.482Z,6.20
2023-01-30T21:56:57.543Z,8.30
2023-01-30T21:59:25.712Z,5.00
2023-01-30T22:02:08.961Z,10.20
2023-01-30T22:04:50.983Z,7.80
2023-01-30T22:07:33.003Z,12.70
2023-01-30T22:10:15.145Z,6.80
2023-01-30T22:12:57.264Z,8.90
2023-01-30T22:15:26.492Z,7.40
2023-01-30T22:18:08.563Z,10.60
2023-01-30T22:20:36.773Z,12.50
2023-01-30T22:23:05.474Z,6.00
2023-01-30T22:25:33.634Z,11.20
2023-01-30T22:31:10.331Z,6.00
2023-01-30T22:33:55.743Z,7.90
2023-01-30T22:36:27.360Z,4.70
2023-01-30T22:39:09.537Z,5.70
2023-01-30T22:41:51.585Z,4.10
2023-01-30T22:44:33.622Z,7.40
2023-01-30T22:47:15.649Z,7.10
2023-01-30T22:49:57.658Z,8.50
2023-01-30T22:52:39.643Z,12.90
2023-01-30T22:55:08.294Z,8.90
2023-01-30T22:57:50.346Z,8.90
2023-01-30T23:02:04.875Z,12.30
2023-01-30T23:06:37.266Z,14.90
2023-01-30T23:11:06.585Z,11.40
2023-01-30T23:15:09.296Z,10.40
2023-01-30T23:18:39.657Z,11.00
2023-01-30T23:22:58.439Z,10.00
2023-01-30T23:27:30.830Z,9.50
2023-01-30T23:32:00.270Z,11.10
2023-01-30T23:40:19.474Z,15.00
2023-01-30T23:44:49.111Z,10.00
2023-01-30T23:49:27.192Z,15.10
2023-01-30T23:52:59.760Z,11.90
2023-01-30T23:56:35.114Z,13.50
